Time;durP1;ratioP1;P1;durP2;ratioP2;P2;SDS_P1;SDS_P2;PMS_P1;PMS_P2;Temp;Humidity;BMP_temperature;BMP_pressure;BME280_temperature;BME280_humidity;BME280_pressure;Samples;Min_cycle;Max_cycle;Signal;HPM_P1;HPM_P2
2023/01/29 00:01:41;;;;;;;19.60;10.90;;;4.60;1.00;;;;;;4993127;28;20171;-74
2023/01/29 00:04:07;;;;;;;18.13;11.60;;;4.60;1.00;;;;;;4992786;28;20402;-72
2023/01/29 00:06:33;;;;;;;24.73;12.87;;;4.60;1.00;;;;;;4992497;28;20165;-73
2023/01/29 00:08:59;;;;;;;27.00;12.20;;;4.60;1.00;;;;;;4992557;28;20171;-74
2023/01/29 00:11:25;;;;;;;18.37;11.20;;;4.70;1.00;;;;;;4993034;28;20169;-74
2023/01/29 00:13:51;;;;;;;19.60;12.20;;;4.60;1.00;;;;;;4991674;28;20421;-76
2023/01/29 00:16:17;;;;;;;22.87;10.93;;;4.60;1.00;;;;;;4992011;28;20463;-74
2023/01/29 00:18:43;;;;;;;24.50;10.37;;;4.60;1.00;;;;;;4992961;28;20887;-71
2023/01/29 00:21:14;;;;;;;24.73;13.93;;;4.60;1.00;;;;;;4992777;28;20622;-72
2023/01/29 00:23:40;;;;;;;19.17;10.90;;;4.60;1.00;;;;;;4992740;28;20171;-72
2023/01/29 00:26:06;;;;;;;20.77;12.50;;;4.60;1.00;;;;;;4991510;28;20429;-74
2023/01/29 00:28:32;;;;;;;14.73;10.63;;;4.60;1.00;;;;;;4992614;28;20483;-74
2023/01/29 00:30:58;;;;;;;18.17;11.70;;;4.60;1.00;;;;;;4992640;28;20489;-74
2023/01/29 00:33:23;;;;;;;23.40;12.90;;;4.70;1.00;;;;;;4991611;28;20806;-71
2023/01/29 00:35:49;;;;;;;18.90;11.70;;;4.70;1.00;;;;;;4990864;28;20205;-72
2023/01/29 00:38:15;;;;;;;18.73;10.20;;;4.70;1.00;;;;;;4991240;28;20254;-74
2023/01/29 00:46:10;;;;;;;20.17;11.53;;;4.80;1.00;;;;;;4991815;28;20431;-72
2023/01/29 00:48:36;;;;;;;23.90;13.50;;;4.80;1.00;;;;;;4992275;28;20399;-71
2023/01/29 00:51:02;;;;;;;20.33;12.60;;;4.80;1.00;;;;;;4991040;28;20417;-74
2023/01/29 00:53:28;;;;;;;20.27;12.07;;;4.70;1.00;;;;;;4991138;28;20420;-75
2023/01/29 00:55:54;;;;;;;21.33;12.97;;;4.70;1.00;;;;;;4991511;28;20429;-72
2023/01/29 00:58:21;;;;;;;19.93;12.47;;;4.70;1.00;;;;;;4992280;28;20420;-72
2023/01/29 01:00:48;;;;;;;16.97;10.90;;;4.70;1.00;;;;;;4991978;28;20408;-73
2023/01/29 01:03:14;;;;;;;25.57;11.37;;;4.80;1.00;;;;;;4991961;28;20410;-74
2023/01/29 01:05:41;;;;;;;19.47;9.90;;;4.80;1.00;;;;;;4991399;28;20796;-73
2023/01/29 01:10:19;;;;;;;15.07;9.37;;;4.80;1.00;;;;;;4992164;28;20750;-74
2023/01/29 01:11:04;;;;;;;13.07;9.90;;;4.80;1.00;;;;;;4991865;28;20474;-74
2023/01/29 01:13:32;;;;;;;17.47;11.10;;;4.80;1.00;;;;;;4991118;28;20455;-74
2023/01/29 01:15:58;;;;;;;13.97;9.10;;;4.80;1.00;;;;;;4991217;28;20448;-73
2023/01/29 01:18:23;;;;;;;16.50;11.33;;;4.90;1.00;;;;;;4991222;28;20460;-74
2023/01/29 01:20:50;;;;;;;15.93;11.43;;;4.90;1.00;;;;;;4990662;28;20645;-74
2023/01/29 01:23:18;;;;;;;17.03;10.90;;;4.90;1.00;;;;;;4991841;28;20165;-74
2023/01/29 01:25:44;;;;;;;14.53;8.97;;;4.90;1.00;;;;;;4991043;28;20508;-74
2023/01/29 01:28:10;;;;;;;14.20;9.13;;;4.90;1.00;;;;;;4991881;28;20408;-74
2023/01/29 01:30:35;;;;;;;15.03;9.83;;;4.80;1.00;;;;;;4991680;28;20404;-75
2023/01/29 01:33:01;;;;;;;13.60;9.20;;;4.70;1.00;;;;;;4991599;28;20617;-74
2023/01/29 01:35:27;;;;;;;14.97;9.83;;;4.80;1.00;;;;;;4990707;28;20201;-76
2023/01/29 01:37:53;;;;;;;20.03;10.70;;;4.80;1.00;;;;;;4991235;28;20274;-75
2023/01/29 01:40:21;;;;;;;18.40;10.03;;;4.80;1.00;;;;;;4990378;28;21049;-76
2023/01/29 01:42:49;;;;;;;21.43;9.97;;;4.80;1.00;;;;;;4990840;28;20178;-76
2023/01/29 01:45:23;;;;;;;13.40;8.47;;;4.90;1.00;;;;;;4990149;28;20906;-76
2023/01/29 01:47:55;;;;;;;10.33;7.40;;;4.90;1.00;;;;;;4991485;28;20408;-76
2023/01/29 01:50:41;;;;;;;13.60;7.17;;;4.90;1.00;;;;;;4991485;28;20404;-76
2023/01/29 01:53:13;;;;;;;11.40;7.30;;;4.90;1.00;;;;;;4990707;28;20527;-77
2023/01/29 01:55:55;;;;;;;13.00;8.83;;;4.90;1.00;;;;;;4990539;28;20938;-76
2023/01/29 01:58:26;;;;;;;14.20;7.27;;;4.90;1.00;;;;;;4990122;28;20417;-75
2023/01/29 02:00:52;;;;;;;13.47;8.67;;;4.90;1.00;;;;;;4991458;28;20407;-76
2023/01/29 02:11:33;;;;;;;13.83;6.57;;;4.90;1.00;;;;;;4990796;28;20403;-76
2023/01/29 02:13:59;;;;;;;13.90;7.80;;;4.90;1.00;;;;;;4991192;28;20501;-75
2023/01/29 02:16:25;;;;;;;14.53;8.53;;;5.00;1.00;;;;;;4990253;28;20666;-76
2023/01/29 02:18:51;;;;;;;11.87;5.93;;;5.00;1.00;;;;;;4991209;28;20165;-76
2023/01/29 02:21:37;;;;;;;18.60;7.07;;;5.00;1.00;;;;;;4991013;28;20405;-76
2023/01/29 02:24:34;;;;;;;10.90;6.57;;;5.10;1.00;;;;;;5000785;28;20807;-75
2023/01/29 02:27:20;;;;;;;11.83;8.23;;;5.00;1.00;;;;;;4989092;28;20477;-76
2023/01/29 02:30:07;;;;;;;12.47;7.27;;;5.00;1.00;;;;;;4990898;28;20444;-75
2023/01/29 02:32:57;;;;;;;12.43;7.17;;;5.00;1.00;;;;;;4989832;28;20425;-75
2023/01/29 02:35:32;;;;;;;13.90;6.80;;;5.00;1.00;;;;;;4988909;28;20445;-74
2023/01/29 02:38:17;;;;;;;21.87;8.13;;;5.00;1.00;;;;;;4990771;28;20456;-75
2023/01/29 02:40:49;;;;;;;16.93;8.33;;;5.00;1.00;;;;;;4990834;28;20761;-75
2023/01/29 02:43:34;;;;;;;15.20;7.53;;;5.00;1.00;;;;;;4988994;28;20417;-74
2023/01/29 02:46:02;;;;;;;11.07;6.83;;;5.00;1.00;;;;;;4990120;28;20496;-75
2023/01/29 02:48:51;;;;;;;16.00;7.47;;;5.00;1.00;;;;;;4990731;28;20412;-75
2023/01/29 02:51:29;;;;;;;7.47;6.67;;;5.00;1.00;;;;;;4990705;28;20418;-74
2023/01/29 02:54:13;;;;;;;10.30;6.57;;;5.00;1.00;;;;;;4990565;28;20412;-75
2023/01/29 02:56:55;;;;;;;16.30;8.40;;;5.10;1.00;;;;;;4989144;28;20458;-75
2023/01/29 02:59:27;;;;;;;18.13;6.70;;;5.00;1.00;;;;;;4993624;28;20746;-74
2023/01/29 03:02:06;;;;;;;13.23;7.37;;;5.10;1.00;;;;;;4992950;28;20431;-75
2023/01/29 03:04:37;;;;;;;10.43;6.60;;;5.10;1.00;;;;;;4992690;28;20522;-75
2023/01/29 03:07:09;;;;;;;8.57;6.50;;;5.00;1.00;;;;;;4994007;28;20408;-74
2023/01/29 03:09:45;;;;;;;12.63;6.00;;;5.10;1.00;;;;;;4993891;28;20408;-75
2023/01/29 03:12:35;;;;;;;10.03;5.93;;;5.10;1.00;;;;;;4993003;28;20421;-74
2023/01/29 03:15:10;;;;;;;7.40;6.67;;;5.10;1.00;;;;;;4993186;28;20440;-75
2023/01/29 03:17:53;;;;;;;8.70;5.63;;;5.00;1.00;;;;;;4993639;28;20560;-74
2023/01/29 03:20:25;;;;;;;12.77;5.73;;;5.10;1.00;;;;;;4993165;28;20452;-73
2023/01/29 03:22:57;;;;;;;7.70;6.07;;;5.00;1.00;;;;;;4993783;28;20404;-74
2023/01/29 03:34:04;;;;;;;12.00;7.07;;;4.90;1.00;;;;;;4993456;28;20482;-74
2023/01/29 03:36:54;;;;;;;7.30;5.37;;;4.90;1.00;;;;;;4992184;28;20495;-74
2023/01/29 03:39:21;;;;;;;18.23;6.80;;;4.90;1.00;;;;;;4992266;28;20419;-75
2023/01/29 03:42:21;;;;;;;14.90;5.80;;;4.90;1.00;;;;;;4993360;28;20407;-75
2023/01/29 03:44:49;;;;;;;8.13;7.33;;;4.90;1.00;;;;;;4991469;28;20960;-75
2023/01/29 03:47:23;;;;;;;18.57;6.20;;;4.90;1.00;;;;;;4993480;28;20670;-73
2023/01/29 03:50:10;;;;;;;7.40;4.37;;;4.90;1.00;;;;;;4993281;28;20400;-73
2023/01/29 03:52:58;;;;;;;11.53;6.90;;;4.90;1.00;;;;;;4993260;28;20511;-74
2023/01/29 03:55:32;;;;;;;7.10;4.83;;;4.90;1.00;;;;;;4992006;28;20528;-73
2023/01/29 03:58:18;;;;;;;7.27;5.90;;;4.90;1.00;;;;;;4993113;28;21031;-74
2023/01/29 04:00:53;;;;;;;11.03;5.40;;;4.90;1.00;;;;;;4993213;28;20398;-73
2023/01/29 04:03:21;;;;;;;14.60;6.60;;;4.90;1.00;;;;;;4993130;28;20408;-75
2023/01/29 04:05:57;;;;;;;9.13;6.73;;;4.80;1.00;;;;;;4992371;28;20413;-73
2023/01/29 04:08:29;;;;;;;9.53;5.87;;;4.90;1.00;;;;;;4992397;28;20406;-75
2023/01/29 04:11:00;;;;;;;8.57;5.33;;;4.90;1.00;;;;;;4992468;28;20396;-74
2023/01/29 04:13:29;;;;;;;9.73;5.90;;;4.90;1.00;;;;;;4992863;28;20404;-73
2023/01/29 04:15:59;;;;;;;8.83;6.80;;;4.90;1.00;;;;;;4992122;28;20454;-73
2023/01/29 04:18:25;;;;;;;6.73;5.53;;;4.90;1.00;;;;;;4992811;28;20499;-75
2023/01/29 04:20:52;;;;;;;10.60;5.80;;;4.90;1.00;;;;;;4992984;28;20425;-74
2023/01/29 04:23:24;;;;;;;7.43;6.67;;;5.00;1.00;;;;;;4991855;28;20413;-76
2023/01/29 04:26:40;;;;;;;7.10;6.20;;;5.00;1.00;;;;;;4992056;28;20455;-74
2023/01/29 04:29:26;;;;;;;12.17;6.73;;;4.90;1.00;;;;;;5052949;28;20494;-74
2023/01/29 04:32:20;;;;;;;10.97;6.53;;;4.90;1.00;;;;;;5052121;28;20444;-75
2023/01/29 04:35:13;;;;;;;11.80;7.03;;;4.90;1.00;;;;;;4999393;28;20519;-75
2023/01/29 04:38:10;;;;;;;13.43;7.47;;;4.90;1.00;;;;;;4992445;28;20462;-74
2023/01/29 04:40:44;;;;;;;11.33;7.07;;;4.90;1.00;;;;;;4992768;28;20921;-75
2023/01/29 04:43:33;;;;;;;11.47;7.10;;;4.80;1.00;;;;;;4992520;28;20825;-76
2023/01/29 04:46:08;;;;;;;9.00;6.93;;;4.80;1.00;;;;;;4991749;28;20445;-76
2023/01/29 04:48:46;;;;;;;12.70;7.43;;;4.80;1.00;;;;;;4991027;28;20442;-77
2023/01/29 04:51:42;;;;;;;8.97;7.17;;;4.80;1.00;;;;;;4992031;28;20433;-74
2023/01/29 04:54:20;;;;;;;10.33;7.03;;;4.90;1.00;;;;;;4994638;28;20998;-76
2023/01/29 04:57:16;;;;;;;12.63;7.60;;;5.00;1.00;;;;;;4992108;28;20483;-74
2023/01/29 04:59:47;;;;;;;11.53;7.50;;;5.00;1.00;;;;;;4992288;28;20821;-75
2023/01/29 05:02:13;;;;;;;9.83;7.83;;;5.00;1.00;;;;;;4992196;28;20935;-76
2023/01/29 05:04:41;;;;;;;15.60;8.80;;;5.00;1.00;;;;;;4990415;28;20452;-76
2023/01/29 05:07:10;;;;;;;12.00;8.80;;;5.00;1.00;;;;;;4991438;28;20413;-74
2023/01/29 05:09:37;;;;;;;13.70;9.40;;;5.10;1.00;;;;;;4992072;28;20463;-76
2023/01/29 05:12:06;;;;;;;20.93;10.40;;;5.10;1.00;;;;;;4992145;28;20410;-76
2023/01/29 05:14:33;;;;;;;13.50;9.00;;;5.00;1.00;;;;;;4990033;28;20453;-75
2023/01/29 05:17:04;;;;;;;14.43;10.43;;;5.10;1.00;;;;;;4991811;28;20467;-75
2023/01/29 05:19:30;;;;;;;16.80;8.97;;;5.10;1.00;;;;;;4992038;28;20975;-75
2023/01/29 05:21:57;;;;;;;16.40;10.23;;;5.10;1.00;;;;;;4989612;28;20499;-75
2023/01/29 05:24:24;;;;;;;15.03;8.90;;;5.10;1.00;;;;;;4991112;28;20460;-76
2023/01/29 05:29:41;;;;;;;14.00;8.77;;;5.10;1.00;;;;;;4991743;28;20426;-75
2023/01/29 05:32:07;;;;;;;16.57;9.27;;;5.10;1.00;;;;;;4991859;28;20463;-75
2023/01/29 05:34:33;;;;;;;18.07;10.17;;;5.10;1.00;;;;;;4989710;28;20444;-75
2023/01/29 05:36:58;;;;;;;15.90;8.80;;;5.00;1.00;;;;;;4991422;28;20207;-74
2023/01/29 05:39:24;;;;;;;14.10;9.73;;;5.00;1.00;;;;;;4991682;28;20819;-76
2023/01/29 05:41:50;;;;;;;16.97;9.87;;;4.90;1.00;;;;;;4990617;28;20197;-75
2023/01/29 05:44:16;;;;;;;19.83;9.47;;;5.00;1.00;;;;;;4991333;28;20645;-76
2023/01/29 05:46:42;;;;;;;15.03;9.10;;;5.00;1.00;;;;;;4990727;28;20166;-77
2023/01/29 05:49:08;;;;;;;19.47;9.47;;;5.10;1.00;;;;;;4991343;28;20408;-75
2023/01/29 05:51:34;;;;;;;18.90;11.37;;;5.20;1.00;;;;;;4991474;28;20427;-75
2023/01/29 05:54:00;;;;;;;10.97;8.90;;;5.10;1.00;;;;;;4991432;28;20582;-75
2023/01/29 05:56:25;;;;;;;20.20;10.13;;;5.10;1.00;;;;;;4989704;28;20249;-76
2023/01/29 05:58:51;;;;;;;12.60;8.73;;;5.20;1.00;;;;;;4991364;28;20393;-76
2023/01/29 06:01:20;;;;;;;13.73;8.23;;;5.20;1.00;;;;;;4991213;28;20176;-75
2023/01/29 06:03:46;;;;;;;11.80;8.63;;;5.20;1.00;;;;;;4990789;28;20392;-75
2023/01/29 06:06:12;;;;;;;13.37;8.87;;;5.30;1.00;;;;;;4990402;28;20424;-76
2023/01/29 06:08:38;;;;;;;10.97;7.30;;;5.30;1.00;;;;;;4991197;28;20522;-76
2023/01/29 06:11:07;;;;;;;10.73;6.87;;;5.20;1.00;;;;;;4990124;28;20426;-75
2023/01/29 06:13:33;;;;;;;11.13;6.93;;;5.20;1.00;;;;;;4991216;28;20417;-75
2023/01/29 06:15:59;;;;;;;9.33;6.60;;;5.20;1.00;;;;;;4990356;28;20433;-76
2023/01/29 06:18:24;;;;;;;8.07;6.63;;;5.20;1.00;;;;;;4991014;28;20411;-76
2023/01/29 06:20:50;;;;;;;10.03;7.13;;;5.30;1.00;;;;;;4990608;28;20165;-76
2023/01/29 06:23:16;;;;;;;8.90;6.43;;;5.30;1.00;;;;;;4990900;28;20897;-75
2023/01/29 06:25:41;;;;;;;10.10;6.77;;;5.30;1.00;;;;;;4990224;28;20189;-76
2023/01/29 06:28:07;;;;;;;6.57;5.60;;;5.20;1.00;;;;;;4991059;28;20179;-77
2023/01/29 06:30:33;;;;;;;6.67;5.20;;;5.20;1.00;;;;;;4989913;28;20193;-76
2023/01/29 06:33:00;;;;;;;7.30;5.20;;;5.10;1.00;;;;;;4989501;28;20244;-76
2023/01/29 06:35:26;;;;;;;6.43;5.07;;;5.10;1.00;;;;;;4990063;28;20424;-76
2023/01/29 06:37:52;;;;;;;5.90;5.40;;;5.10;1.00;;;;;;4989583;28;20456;-77
2023/01/29 06:40:18;;;;;;;5.30;4.80;;;5.10;1.00;;;;;;4989006;28;20413;-77
2023/01/29 06:42:44;;;;;;;11.33;5.00;;;5.10;1.00;;;;;;4990934;28;20404;-77
2023/01/29 06:45:10;;;;;;;6.17;4.80;;;5.10;1.00;;;;;;4989839;28;20477;-77
2023/01/29 06:47:36;;;;;;;5.87;4.53;;;5.10;1.00;;;;;;4990483;28;20259;-77
2023/01/29 06:50:02;;;;;;;5.57;5.03;;;5.10;1.00;;;;;;4990616;28;20185;-77
2023/01/29 06:52:28;;;;;;;5.53;4.60;;;5.10;1.00;;;;;;4990728;28;20575;-76
2023/01/29 06:54:55;;;;;;;4.43;4.03;;;5.20;1.00;;;;;;4989983;28;20429;-77
2023/01/29 06:57:21;;;;;;;4.23;3.83;;;5.20;1.00;;;;;;4990589;28;20453;-77
2023/01/29 06:59:46;;;;;;;4.43;3.27;;;5.20;1.00;;;;;;4990044;28;20410;-77
2023/01/29 07:02:12;;;;;;;6.33;3.67;;;5.10;1.00;;;;;;4990498;28;20456;-76
2023/01/29 07:04:38;;;;;;;3.53;3.23;;;5.10;1.00;;;;;;4989901;28;20692;-75
2023/01/29 07:07:04;;;;;;;5.50;4.37;;;5.10;1.00;;;;;;4990469;28;20179;-75
2023/01/29 07:09:30;;;;;;;4.33;3.83;;;5.20;1.00;;;;;;4990465;28;20176;-76
2023/01/29 07:11:56;;;;;;;5.27;3.60;;;5.20;1.00;;;;;;4990393;28;20409;-76
2023/01/29 07:14:21;;;;;;;6.70;5.70;;;5.20;1.00;;;;;;4988382;28;20420;-76
2023/01/29 07:16:47;;;;;;;6.73;6.07;;;5.20;1.00;;;;;;4989814;28;20219;-75
2023/01/29 07:19:13;;;;;;;7.13;6.50;;;5.20;1.00;;;;;;4990373;28;20177;-75
2023/01/29 07:21:38;;;;;;;10.53;6.50;;;5.20;1.00;;;;;;4990367;28;20209;-74
2023/01/29 07:24:04;;;;;;;9.10;6.60;;;5.20;1.00;;;;;;4990149;28;20618;-76
2023/01/29 07:26:30;;;;;;;8.73;6.33;;;5.10;1.00;;;;;;4989736;28;20659;-75
2023/01/29 07:28:56;;;;;;;10.10;6.70;;;5.10;1.00;;;;;;4989212;28;20504;-76
2023/01/29 07:31:21;;;;;;;12.00;7.83;;;5.20;1.00;;;;;;4990338;28;20538;-76
2023/01/29 07:33:47;;;;;;;10.70;5.67;;;5.20;1.00;;;;;;4989545;28;20222;-77
2023/01/29 07:36:13;;;;;;;9.10;6.70;;;5.10;1.00;;;;;;4989333;28;20213;-75
2023/01/29 07:38:39;;;;;;;9.57;6.60;;;5.10;1.00;;;;;;4990206;28;20695;-76
2023/01/29 07:41:05;;;;;;;6.70;4.77;;;5.10;1.00;;;;;;4990115;28;20436;-75
2023/01/29 07:43:31;;;;;;;13.00;6.10;;;5.00;1.00;;;;;;4990404;28;20396;-76
2023/01/29 07:46:02;;;;;;;8.80;6.33;;;5.00;1.00;;;;;;4992575;28;20420;-77
2023/01/29 07:48:28;;;;;;;8.20;7.00;;;5.00;1.00;;;;;;4993491;28;20397;-74
2023/01/29 07:50:55;;;;;;;12.50;7.90;;;5.00;1.00;;;;;;4992659;28;20430;-77
2023/01/29 07:53:20;;;;;;;13.73;7.57;;;5.00;1.00;;;;;;4993470;28;20199;-75
2023/01/29 07:55:46;;;;;;;9.30;6.70;;;5.00;1.00;;;;;;4992463;28;20456;-75
2023/01/29 07:58:12;;;;;;;8.83;6.30;;;4.90;1.00;;;;;;4993031;28;20193;-76
2023/01/29 08:00:38;;;;;;;11.23;7.20;;;4.90;1.00;;;;;;4993237;28;20652;-76
2023/01/29 08:03:06;;;;;;;10.63;7.40;;;4.90;1.00;;;;;;4993058;28;20639;-75
2023/01/29 08:05:35;;;;;;;10.97;6.30;;;4.90;1.00;;;;;;4992416;28;20422;-77
2023/01/29 08:08:01;;;;;;;8.20;6.67;;;4.90;1.00;;;;;;4992873;28;20438;-76
2023/01/29 08:10:27;;;;;;;8.20;7.13;;;4.80;1.00;;;;;;4992451;28;20416;-76
2023/01/29 08:13:00;;;;;;;9.43;6.40;;;4.80;1.00;;;;;;4993050;28;20193;-76
2023/01/29 08:15:27;;;;;;;14.00;6.33;;;4.80;1.00;;;;;;4992318;28;20507;-75
2023/01/29 08:17:53;;;;;;;14.80;6.43;;;4.80;1.00;;;;;;4992684;28;20464;-77
2023/01/29 08:20:20;;;;;;;6.10;5.50;;;4.80;1.00;;;;;;4992750;28;20408;-76
2023/01/29 08:22:46;;;;;;;8.07;6.10;;;4.80;1.00;;;;;;4992908;28;20486;-76
2023/01/29 08:25:12;;;;;;;8.70;6.07;;;4.70;1.00;;;;;;4992159;28;20532;-77
2023/01/29 08:27:38;;;;;;;8.17;6.00;;;4.80;1.00;;;;;;4990973;28;20408;-77
2023/01/29 08:30:05;;;;;;;7.23;6.40;;;4.80;1.00;;;;;;4992794;28;20461;-77
2023/01/29 08:32:31;;;;;;;9.77;6.27;;;4.80;1.00;;;;;;4992622;28;20174;-76
2023/01/29 08:34:57;;;;;;;7.57;5.73;;;4.80;1.00;;;;;;4991924;28;20512;-76
2023/01/29 08:37:22;;;;;;;7.80;6.93;;;4.70;1.00;;;;;;4992560;28;20558;-76
2023/01/29 08:39:48;;;;;;;7.90;6.80;;;4.80;1.00;;;;;;4992565;28;20181;-76
2023/01/29 08:42:14;;;;;;;8.37;6.20;;;4.80;1.00;;;;;;4992533;28;20174;-76
2023/01/29 08:44:39;;;;;;;10.20;7.00;;;4.90;1.00;;;;;;4989989;28;20326;-76
2023/01/29 08:47:05;;;;;;;10.00;6.93;;;4.80;1.00;;;;;;4992434;28;20645;-76
2023/01/29 08:49:30;;;;;;;7.17;6.40;;;4.90;1.00;;;;;;4992480;28;20603;-75
2023/01/29 08:51:56;;;;;;;14.87;7.80;;;4.80;1.00;;;;;;4992419;28;20175;-75
2023/01/29 08:54:23;;;;;;;9.50;6.13;;;4.90;1.00;;;;;;4991507;28;20177;-76
2023/01/29 08:56:49;;;;;;;10.83;6.83;;;4.90;1.00;;;;;;4992345;28;20202;-76
2023/01/29 08:59:15;;;;;;;9.23;7.13;;;4.90;1.00;;;;;;4992282;28;20408;-75
2023/01/29 09:01:40;;;;;;;8.00;6.60;;;4.80;1.00;;;;;;4992057;28;20405;-76
2023/01/29 09:04:06;;;;;;;5.90;5.40;;;4.90;1.00;;;;;;4991570;28;20248;-78
2023/01/29 09:06:32;;;;;;;11.50;7.00;;;4.90;1.00;;;;;;4991640;28;20263;-74
2023/01/29 09:08:58;;;;;;;10.80;7.03;;;5.00;1.00;;;;;;4992002;28;20180;-75
2023/01/29 09:11:23;;;;;;;8.57;6.77;;;4.90;1.00;;;;;;4992204;28;20405;-75
2023/01/29 09:13:49;;;;;;;11.27;7.27;;;4.90;1.00;;;;;;4992100;28;20174;-76
2023/01/29 09:16:15;;;;;;;7.67;6.20;;;4.90;1.00;;;;;;4991305;28;20205;-75
2023/01/29 09:18:41;;;;;;;23.70;11.30;;;4.90;1.00;;;;;;4991946;28;20268;-76
2023/01/29 09:21:06;;;;;;;7.30;5.70;;;4.90;1.00;;;;;;4990359;28;20601;-76
2023/01/29 09:23:32;;;;;;;9.50;6.33;;;5.00;1.00;;;;;;4991738;28;20174;-75
2023/01/29 09:25:58;;;;;;;10.33;7.03;;;5.00;1.00;;;;;;4991008;28;20216;-76
2023/01/29 09:28:24;;;;;;;7.80;6.53;;;5.00;1.00;;;;;;4991824;28;20445;-75
2023/01/29 09:30:50;;;;;;;10.10;7.87;;;4.90;1.00;;;;;;4991787;28;20176;-75
2023/01/29 09:33:15;;;;;;;9.80;8.23;;;5.00;1.00;;;;;;4991802;28;20170;-72
2023/01/29 09:35:42;;;;;;;10.90;6.90;;;4.90;1.00;;;;;;4990970;28;20310;-73
2023/01/29 09:38:09;;;;;;;10.70;7.70;;;4.80;1.00;;;;;;4991438;28;20186;-74
2023/01/29 09:40:45;;;;;;;10.63;6.97;;;4.80;1.00;;;;;;4991088;28;20405;-75
2023/01/29 09:43:48;;;;;;;10.17;7.77;;;4.80;1.00;;;;;;4991616;28;20412;-75
2023/01/29 09:46:20;;;;;;;10.77;8.10;;;4.80;1.00;;;;;;4992787;28;20478;-76
2023/01/29 09:48:51;;;;;;;9.73;7.43;;;4.80;1.00;;;;;;4991619;28;20404;-76
2023/01/29 09:51:44;;;;;;;12.10;8.17;;;4.80;1.00;;;;;;4991503;28;20404;-75
2023/01/29 09:54:28;;;;;;;11.70;7.90;;;4.90;1.00;;;;;;4991315;28;20523;-75
2023/01/29 09:56:56;;;;;;;10.43;6.60;;;4.80;1.00;;;;;;4991190;28;20483;-76
2023/01/29 09:59:25;;;;;;;18.50;9.00;;;4.80;1.00;;;;;;4989977;28;20785;-75
2023/01/29 10:02:01;;;;;;;12.90;8.10;;;4.80;1.00;;;;;;4991301;28;20916;-75
2023/01/29 10:04:53;;;;;;;12.17;7.77;;;4.80;1.00;;;;;;4989570;28;20447;-76
2023/01/29 10:07:49;;;;;;;11.93;8.03;;;4.80;1.00;;;;;;4990784;28;20423;-74
2023/01/29 10:10:33;;;;;;;9.10;6.13;;;4.70;1.00;;;;;;4990130;28;20528;-77
2023/01/29 10:13:10;;;;;;;9.20;6.80;;;4.70;1.00;;;;;;4991119;28;20453;-74
2023/01/29 10:16:02;;;;;;;11.57;6.30;;;4.70;1.00;;;;;;4989838;28;20442;-76
2023/01/29 10:19:01;;;;;;;11.67;6.20;;;4.70;1.00;;;;;;4991144;28;20792;-77
2023/01/29 10:21:45;;;;;;;7.03;5.87;;;4.70;1.00;;;;;;4991147;28;20412;-76
2023/01/29 10:24:37;;;;;;;8.60;6.13;;;4.70;1.00;;;;;;4990968;28;20388;-77
2023/01/29 10:27:14;;;;;;;9.87;6.93;;;4.70;1.00;;;;;;4990966;28;20416;-76
2023/01/29 10:29:42;;;;;;;10.30;7.13;;;4.70;1.00;;;;;;4990997;28;20403;-75
2023/01/29 10:32:15;;;;;;;9.67;7.10;;;4.70;1.00;;;;;;4990910;28;20407;-76
2023/01/29 10:34:51;;;;;;;9.00;6.97;;;4.80;1.00;;;;;;4989703;28;20543;-76
2023/01/29 10:37:22;;;;;;;9.13;7.00;;;4.70;1.00;;;;;;4989431;28;20463;-75
2023/01/29 10:39:49;;;;;;;6.50;5.27;;;4.70;1.00;;;;;;4990940;28;20408;-76
2023/01/29 10:42:23;;;;;;;11.43;7.23;;;4.70;1.00;;;;;;4989773;28;20411;-77
2023/01/29 10:45:56;;;;;;;12.47;7.97;;;4.70;1.00;;;;;;4988696;28;20431;-76
2023/01/29 10:48:57;;;;;;;9.20;6.50;;;4.80;1.00;;;;;;4967834;28;20466;-74
2023/01/29 10:52:06;;;;;;;10.20;6.57;;;4.80;1.00;;;;;;4919920;29;20450;-74
2023/01/29 10:54:51;;;;;;;9.67;6.07;;;4.80;1.00;;;;;;5002352;28;20994;-75
2023/01/29 10:57:36;;;;;;;8.13;5.93;;;4.80;1.00;;;;;;4972259;28;20574;-76
2023/01/29 11:00:11;;;;;;;6.73;6.07;;;4.80;1.00;;;;;;4974068;28;20456;-76
2023/01/29 11:02:44;;;;;;;12.77;7.27;;;4.80;1.00;;;;;;4971483;28;20428;-73
2023/01/29 11:05:33;;;;;;;11.23;7.90;;;4.90;1.00;;;;;;4969939;28;20527;-74
2023/01/29 11:08:11;;;;;;;11.30;6.53;;;4.90;1.00;;;;;;4981488;28;20938;-74
2023/01/29 11:11:01;;;;;;;13.07;6.93;;;4.90;1.00;;;;;;4987482;28;20438;-73
2023/01/29 11:13:43;;;;;;;13.27;6.63;;;5.00;1.00;;;;;;4991065;28;20427;-74
2023/01/29 11:16:09;;;;;;;12.73;7.77;;;5.00;1.00;;;;;;4989456;28;20834;-73
2023/01/29 11:18:56;;;;;;;14.57;6.60;;;5.00;1.00;;;;;;4971384;28;20406;-74
2023/01/29 11:21:24;;;;;;;18.90;7.20;;;5.00;1.00;;;;;;4974917;28;20425;-73
2023/01/29 11:24:04;;;;;;;10.47;6.50;;;5.00;1.00;;;;;;4981721;28;20510;-72
2023/01/29 11:26:35;;;;;;;10.93;7.07;;;5.00;1.00;;;;;;4991328;28;20522;-75
2023/01/29 11:29:00;;;;;;;9.00;7.50;;;5.10;1.00;;;;;;4978270;28;20432;-74
2023/01/29 11:31:34;;;;;;;9.30;6.77;;;5.10;1.00;;;;;;4988914;28;20436;-74
2023/01/29 11:34:26;;;;;;;11.03;7.63;;;5.20;1.00;;;;;;4977141;28;20186;-74
2023/01/29 11:37:15;;;;;;;11.30;6.57;;;5.20;1.00;;;;;;4989548;28;20472;-75
2023/01/29 11:39:49;;;;;;;14.40;6.97;;;5.30;1.00;;;;;;4992342;28;20797;-73
2023/01/29 11:42:22;;;;;;;9.93;6.80;;;5.20;1.00;;;;;;4988210;28;20508;-74
2023/01/29 11:44:48;;;;;;;10.00;6.47;;;5.20;1.00;;;;;;4978400;28;20978;-73
2023/01/29 11:47:19;;;;;;;10.10;7.53;;;5.30;1.00;;;;;;4974039;28;20417;-72
2023/01/29 11:49:50;;;;;;;11.87;6.13;;;5.30;1.00;;;;;;4993135;28;20460;-74
2023/01/29 11:52:38;;;;;;;8.20;5.67;;;5.40;1.00;;;;;;4993287;28;20414;-74
2023/01/29 11:55:19;;;;;;;9.10;6.37;;;5.40;1.00;;;;;;4992294;28;20847;-73
2023/01/29 11:58:11;;;;;;;7.97;6.40;;;5.30;1.00;;;;;;4993021;28;21049;-71
2023/01/29 12:00:40;;;;;;;11.97;7.07;;;5.30;1.00;;;;;;4983098;28;20840;-69
2023/01/29 12:03:20;;;;;;;6.93;5.37;;;5.40;1.00;;;;;;4992538;28;20408;-69
2023/01/29 12:05:57;;;;;;;10.83;6.37;;;5.30;1.00;;;;;;4992253;28;20500;-71
2023/01/29 12:08:23;;;;;;;10.03;6.23;;;5.40;1.00;;;;;;4993148;28;20775;-72
2023/01/29 12:10:49;;;;;;;9.73;6.20;;;5.30;99.90;;;;;;4991818;28;20761;-72
2023/01/29 12:13:25;;;;;;;8.33;6.30;;;5.40;99.90;;;;;;4992964;28;20420;-74
2023/01/29 12:16:25;;;;;;;8.20;6.07;;;5.40;99.90;;;;;;4991868;28;20440;-72
2023/01/29 12:19:04;;;;;;;10.00;7.17;;;5.30;99.90;;;;;;4991995;28;20467;-74
2023/01/29 12:21:57;;;;;;;12.13;6.80;;;5.40;99.90;;;;;;4992493;28;20420;-75
2023/01/29 12:24:53;;;;;;;14.30;5.47;;;5.50;99.90;;;;;;4991826;28;20428;-71
2023/01/29 12:27:59;;;;;;;11.50;6.70;;;5.40;99.90;;;;;;4992837;28;20492;-74
2023/01/29 12:30:35;;;;;;;14.00;7.77;;;5.40;99.90;;;;;;4992329;28;20438;-74
2023/01/29 12:33:13;;;;;;;8.13;6.07;;;5.50;99.90;;;;;;4992648;28;20396;-70
2023/01/29 12:35:49;;;;;;;8.63;5.63;;;5.60;99.90;;;;;;4990572;28;20797;-70
2023/01/29 12:38:19;;;;;;;9.03;6.80;;;5.60;99.90;;;;;;4972582;28;20469;-73
2023/01/29 12:41:10;;;;;;;9.67;6.70;;;5.50;99.90;;;;;;4973304;28;20403;-71
2023/01/29 12:43:47;;;;;;;8.37;7.00;;;5.40;99.90;;;;;;4986666;28;20995;-74
2023/01/29 12:46:21;;;;;;;11.57;7.67;;;5.50;99.90;;;;;;4971992;28;20859;-74
2023/01/29 12:48:49;;;;;;;12.73;7.47;;;5.50;99.90;;;;;;4981492;28;20419;-69
2023/01/29 12:51:19;;;;;;;13.47;9.13;;;5.40;99.90;;;;;;4991521;28;20401;-68
2023/01/29 12:54:18;;;;;;;16.37;11.10;;;5.40;99.90;;;;;;4977661;28;20409;-73
2023/01/29 12:56:54;;;;;;;13.47;10.00;;;5.30;99.90;;;;;;4965485;28;20471;-73
2023/01/29 12:59:31;;;;;;;17.70;9.10;;;5.40;99.90;;;;;;4972393;28;20417;-71
2023/01/29 13:02:10;;;;;;;16.27;9.60;;;5.30;99.90;;;;;;4972770;28;20440;-70
2023/01/29 13:04:51;;;;;;;13.13;9.10;;;5.30;99.90;;;;;;4975404;28;20785;-74
2023/01/29 13:07:31;;;;;;;15.27;9.80;;;5.30;99.90;;;;;;4992239;28;20470;-74
2023/01/29 13:10:06;;;;;;;14.30;8.77;;;5.20;99.90;;;;;;4991160;28;20416;-70
2023/01/29 13:12:33;;;;;;;15.73;10.53;;;5.20;99.90;;;;;;4990505;28;20420;-72
2023/01/29 13:15:12;;;;;;;16.73;10.20;;;5.30;99.90;;;;;;4981815;28;20457;-73
2023/01/29 13:17:53;;;;;;;15.37;9.13;;;5.20;99.90;;;;;;4986593;28;20468;-74
2023/01/29 13:20:30;;;;;;;17.10;11.13;;;5.20;99.90;;;;;;4973200;28;20565;-71
2023/01/29 13:23:20;;;;;;;24.03;7.53;;;5.20;99.90;;;;;;4979782;28;20513;-72
2023/01/29 13:25:49;;;;;;;16.17;8.33;;;5.20;99.90;;;;;;4990054;28;20801;-71
2023/01/29 13:28:21;;;;;;;7.90;7.10;;;5.20;99.90;;;;;;4976542;28;20444;-71
2023/01/29 13:31:12;;;;;;;15.70;8.80;;;5.20;99.90;;;;;;4976512;28;20442;-73
2023/01/29 13:33:40;;;;;;;17.33;8.57;;;5.20;99.90;;;;;;4991626;28;20405;-72
2023/01/29 13:36:14;;;;;;;10.70;8.03;;;5.20;99.90;;;;;;4983452;28;20465;-71
2023/01/29 13:38:43;;;;;;;10.77;7.70;;;5.20;99.90;;;;;;4985025;28;20427;-74
2023/01/29 13:41:09;;;;;;;14.50;8.90;;;5.20;99.90;;;;;;4989583;28;20432;-75
2023/01/29 13:43:41;;;;;;;13.73;8.60;;;5.20;99.90;;;;;;4983685;28;20416;-73
2023/01/29 13:46:11;;;;;;;14.00;9.43;;;5.10;99.90;;;;;;4990656;28;20489;-73
2023/01/29 13:48:42;;;;;;;16.13;8.73;;;5.10;99.90;;;;;;4991391;28;20407;-73
2023/01/29 13:51:18;;;;;;;9.40;8.00;;;5.10;99.90;;;;;;4991424;28;20392;-72
2023/01/29 13:53:54;;;;;;;12.60;7.60;;;5.20;99.90;;;;;;4986554;28;20496;-72